Time;durP1;ratioP1;P1;durP2;ratioP2;P2;SDS_P1;SDS_P2;PMS_P1;PMS_P2;Temp;Humidity;BMP_temperature;BMP_pressure;BME280_temperature;BME280_humidity;BME280_pressure;Samples;Min_cycle;Max_cycle;Signal;HPM_P1;HPM_P2
2022/12/10 00:01:06;;;;;;;0.10;0.10;;;2.40;99.90;;;;;;5062843;28;20225;-80
2022/12/10 00:03:32;;;;;;;0.10;0.10;;;2.30;99.90;;;;;;5062818;28;20184;-80
2022/12/10 00:06:01;;;;;;;0.10;0.10;;;2.50;99.90;;;;;;5062679;28;20186;-80
2022/12/10 00:08:26;;;;;;;0.10;0.10;;;2.30;99.90;;;;;;5079065;28;20202;-80
2022/12/10 00:10:52;;;;;;;0.10;0.10;;;2.20;99.90;;;;;;5064224;28;20197;-80
2022/12/10 00:13:17;;;;;;;0.10;0.10;;;2.10;99.90;;;;;;5063900;28;20662;-80
2022/12/10 00:15:43;;;;;;;0.10;0.10;;;1.90;99.90;;;;;;5064448;28;20210;-80
2022/12/10 00:18:08;;;;;;;0.10;0.10;;;1.80;99.90;;;;;;5064252;28;20675;-80
2022/12/10 00:20:37;;;;;;;0.10;0.10;;;1.70;99.90;;;;;;5061133;28;20183;-81
2022/12/10 00:23:02;;;;;;;0.00;0.00;;;1.70;99.90;;;;;;5063529;28;20191;-80
2022/12/10 00:25:28;;;;;;;0.10;0.10;;;1.80;99.90;;;;;;5063566;28;20669;-80
2022/12/10 00:27:53;;;;;;;2.00;1.90;;;1.90;99.90;;;;;;5063687;28;20226;-80
2022/12/10 00:30:19;;;;;;;0.10;0.10;;;1.80;99.90;;;;;;5063380;28;20254;-80
2022/12/10 00:32:44;;;;;;;0.10;0.10;;;1.90;99.90;;;;;;5062873;28;20176;-80
2022/12/10 00:35:10;;;;;;;0.10;0.10;;;1.80;99.90;;;;;;5062353;28;20679;-80
2022/12/10 00:37:35;;;;;;;0.10;0.10;;;1.70;99.90;;;;;;5064784;28;20206;-80
2022/12/10 00:40:01;;;;;;;0.00;0.00;;;1.50;99.90;;;;;;5062204;28;20277;-80
2022/12/10 00:42:27;;;;;;;0.10;0.10;;;1.40;99.90;;;;;;5064155;28;20209;-80
2022/12/10 00:44:52;;;;;;;1.03;1.03;;;1.50;99.90;;;;;;5064218;28;20262;-80
2022/12/10 00:47:18;;;;;;;0.00;0.00;;;1.40;99.90;;;;;;5062511;28;20210;-80
2022/12/10 00:49:43;;;;;;;0.10;0.10;;;1.40;99.90;;;;;;5062547;28;20196;-80
2022/12/10 00:52:09;;;;;;;0.10;0.10;;;1.50;99.90;;;;;;5061643;28;20252;-80
2022/12/10 00:54:34;;;;;;;0.10;0.10;;;1.50;99.90;;;;;;5063170;28;21146;-80
2022/12/10 00:57:00;;;;;;;0.10;0.10;;;1.50;99.90;;;;;;5062356;28;20209;-80
2022/12/10 00:59:25;;;;;;;0.10;0.10;;;1.40;99.90;;;;;;5062858;28;20185;-80
2022/12/10 01:01:51;;;;;;;0.10;0.10;;;1.30;99.90;;;;;;5062807;28;20230;-80
2022/12/10 01:04:17;;;;;;;0.00;0.00;;;1.20;99.90;;;;;;5061977;28;20193;-80
2022/12/10 01:06:49;;;;;;;0.10;0.10;;;1.20;99.90;;;;;;5063461;28;20229;-80
2022/12/10 01:09:18;;;;;;;0.00;0.00;;;1.30;99.90;;;;;;5066868;28;20242;-80
2022/12/10 01:11:45;;;;;;;0.10;0.10;;;1.20;99.90;;;;;;5066182;28;20658;-80
2022/12/10 01:14:18;;;;;;;0.10;0.10;;;1.30;99.90;;;;;;5067195;28;20207;-80
2022/12/10 01:16:44;;;;;;;0.10;0.10;;;1.40;99.90;;;;;;5065068;28;20554;-80
2022/12/10 01:19:10;;;;;;;0.00;0.00;;;1.40;99.90;;;;;;5065368;28;20206;-80
2022/12/10 01:21:36;;;;;;;0.10;0.10;;;1.30;99.90;;;;;;5064715;28;20284;-80
2022/12/10 01:24:02;;;;;;;0.10;0.10;;;1.20;99.90;;;;;;5067858;28;20191;-80
2022/12/10 01:26:31;;;;;;;0.10;0.10;;;1.10;99.90;;;;;;5066192;28;20287;-80
2022/12/10 01:28:58;;;;;;;0.00;0.00;;;1.10;99.90;;;;;;5067718;28;20175;-80
2022/12/10 01:31:29;;;;;;;0.00;0.00;;;1.10;99.90;;;;;;5065185;28;20276;-80
2022/12/10 01:33:57;;;;;;;0.10;0.10;;;1.10;99.90;;;;;;5066387;28;20195;-79
2022/12/10 01:36:27;;;;;;;0.10;0.10;;;1.10;99.90;;;;;;5065681;28;20220;-80
2022/12/10 01:38:53;;;;;;;0.10;0.10;;;1.10;99.90;;;;;;5065459;28;20221;-80
2022/12/10 01:41:23;;;;;;;0.10;0.10;;;1.10;99.90;;;;;;5063560;28;21197;-79
2022/12/10 01:44:04;;;;;;;0.00;0.00;;;1.10;99.90;;;;;;5065317;28;20264;-80
2022/12/10 01:46:38;;;;;;;0.10;0.10;;;1.10;99.90;;;;;;5083260;28;20259;-80
2022/12/10 01:49:08;;;;;;;0.10;0.10;;;1.10;99.90;;;;;;5083565;28;20186;-80
2022/12/10 01:51:36;;;;;;;0.10;0.10;;;1.10;99.90;;;;;;5082169;28;20189;-80
2022/12/10 01:54:03;;;;;;;0.10;0.10;;;1.20;99.90;;;;;;5065772;28;20207;-80
2022/12/10 01:56:34;;;;;;;0.10;0.10;;;1.20;99.90;;;;;;5064691;28;20240;-80
2022/12/10 01:59:00;;;;;;;0.10;0.10;;;1.10;99.90;;;;;;5065491;28;20677;-80
2022/12/10 02:01:42;;;;;;;0.10;0.10;;;1.10;99.90;;;;;;5064859;28;20200;-80
2022/12/10 02:04:39;;;;;;;0.10;0.10;;;1.10;99.90;;;;;;5064906;28;20238;-80
2022/12/10 02:07:16;;;;;;;0.10;0.10;;;1.10;99.90;;;;;;5065481;28;20246;-80
2022/12/10 02:09:47;;;;;;;0.00;0.00;;;1.00;99.90;;;;;;5064271;28;20181;-80
2022/12/10 02:12:25;;;;;;;0.10;0.10;;;1.00;99.90;;;;;;5063390;28;20185;-80
2022/12/10 02:15:01;;;;;;;0.10;0.10;;;1.00;99.90;;;;;;5064298;28;20212;-79
2022/12/10 02:17:34;;;;;;;0.10;0.10;;;0.90;99.90;;;;;;5064022;28;20217;-80
2022/12/10 02:20:16;;;;;;;0.00;0.00;;;0.90;99.90;;;;;;5064279;28;20608;-80
2022/12/10 02:22:49;;;;;;;0.10;0.10;;;0.80;99.90;;;;;;5062944;28;20207;-80
2022/12/10 02:25:18;;;;;;;0.10;0.10;;;0.80;99.90;;;;;;5065039;28;20182;-80
2022/12/10 02:27:59;;;;;;;0.10;0.10;;;0.80;99.90;;;;;;5080151;28;20209;-80
2022/12/10 02:30:25;;;;;;;0.10;0.10;;;0.70;99.90;;;;;;5064372;28;20185;-80
2022/12/10 02:32:50;;;;;;;0.23;0.23;;;0.70;99.90;;;;;;5064114;28;20192;-80
2022/12/10 02:35:24;;;;;;;0.10;0.10;;;0.70;99.90;;;;;;5065044;28;20208;-80
2022/12/10 02:38:03;;;;;;;0.10;0.10;;;0.60;99.90;;;;;;5080036;28;20209;-81
2022/12/10 02:40:33;;;;;;;0.00;0.00;;;0.50;99.90;;;;;;5079746;28;20727;-80
2022/12/10 02:42:58;;;;;;;0.10;0.10;;;0.50;99.90;;;;;;5080827;28;20187;-80
2022/12/10 02:45:27;;;;;;;0.10;0.10;;;0.40;99.90;;;;;;5063940;28;20182;-80
2022/12/10 02:47:57;;;;;;;0.10;0.10;;;0.20;99.90;;;;;;5064994;28;20206;-80
2022/12/10 02:50:23;;;;;;;8.07;6.23;;;0.10;99.90;;;;;;5063871;28;20535;-80
2022/12/10 02:52:50;;;;;;;0.10;0.10;;;0.10;99.90;;;;;;5063956;28;20189;-80
2022/12/10 02:55:16;;;;;;;0.10;0.10;;;0.00;99.90;;;;;;5061780;28;20212;-80
2022/12/10 02:58:15;;;;;;;0.10;0.10;;;0.00;99.90;;;;;;5062865;28;20201;-80
2022/12/10 03:00:57;;;;;;;0.10;0.10;;;0.00;99.90;;;;;;5062497;28;20188;-80
2022/12/10 03:03:33;;;;;;;0.00;0.00;;;0.00;99.90;;;;;;5064730;28;20833;-80
2022/12/10 03:06:15;;;;;;;0.00;0.00;;;-0.10;99.90;;;;;;5062460;28;20176;-80
2022/12/10 03:08:50;;;;;;;0.00;0.00;;;-0.10;99.90;;;;;;5064268;28;20181;-80
2022/12/10 03:11:19;;;;;;;0.00;0.00;;;-0.20;99.90;;;;;;5062435;28;20191;-80
2022/12/10 03:13:57;;;;;;;0.03;0.03;;;-0.20;99.90;;;;;;5080548;28;20296;-80
2022/12/10 03:16:24;;;;;;;0.10;0.10;;;-0.20;99.90;;;;;;5062793;28;20535;-81
2022/12/10 03:18:55;;;;;;;0.30;0.30;;;-0.30;99.90;;;;;;5062502;28;20272;-80
2022/12/10 03:21:21;;;;;;;0.03;0.03;;;-0.30;99.90;;;;;;5062863;28;20212;-80
2022/12/10 03:23:49;;;;;;;0.10;0.10;;;-0.30;99.90;;;;;;5081609;28;20181;-80
2022/12/10 03:26:15;;;;;;;0.00;0.00;;;-0.30;99.90;;;;;;5063764;28;20219;-80
2022/12/10 03:28:47;;;;;;;0.00;0.00;;;-0.30;99.90;;;;;;5064340;28;20215;-80
2022/12/10 03:31:15;;;;;;;0.10;0.10;;;-0.30;99.90;;;;;;5063486;28;20738;-80
2022/12/10 03:33:41;;;;;;;1.70;1.70;;;-0.40;99.90;;;;;;5063074;28;20235;-80
2022/12/10 03:36:08;;;;;;;0.10;0.10;;;-0.40;99.90;;;;;;5062446;28;20357;-80
2022/12/10 03:38:35;;;;;;;0.10;0.10;;;-0.40;99.90;;;;;;5064653;28;20558;-80
2022/12/10 03:41:00;;;;;;;0.00;0.00;;;-0.40;99.90;;;;;;5080248;28;20617;-80
2022/12/10 03:43:26;;;;;;;0.10;0.10;;;-0.40;99.90;;;;;;5062901;28;20185;-80
2022/12/10 03:45:51;;;;;;;0.10;0.10;;;-0.40;99.90;;;;;;5063739;28;20271;-80
2022/12/10 03:48:17;;;;;;;0.00;0.00;;;-0.40;99.90;;;;;;5063410;28;20237;-80
2022/12/10 03:50:43;;;;;;;0.00;0.00;;;-0.50;99.90;;;;;;5063449;28;20189;-80
2022/12/10 03:53:08;;;;;;;0.10;0.10;;;-0.50;99.90;;;;;;5062938;28;20188;-80
2022/12/10 03:55:34;;;;;;;0.10;0.10;;;-0.50;99.90;;;;;;5064446;28;20266;-80
2022/12/10 03:57:59;;;;;;;0.00;0.00;;;-0.40;99.90;;;;;;5063353;28;20271;-81
2022/12/10 04:00:25;;;;;;;0.40;0.40;;;-0.50;99.90;;;;;;5063270;28;20181;-80
2022/12/10 04:02:50;;;;;;;0.00;0.00;;;-0.50;99.90;;;;;;5063787;28;20212;-80
2022/12/10 04:05:16;;;;;;;0.10;0.10;;;-0.50;99.90;;;;;;5063403;28;20189;-80
2022/12/10 04:07:42;;;;;;;0.10;0.10;;;-0.50;99.90;;;;;;5063775;28;20197;-80
2022/12/10 04:10:08;;;;;;;0.00;0.00;;;-0.60;99.90;;;;;;5063980;28;20189;-80
2022/12/10 04:12:34;;;;;;;0.10;0.10;;;-0.50;99.90;;;;;;5062313;28;20193;-81
2022/12/10 04:17:43;;;;;;;0.10;0.10;;;-0.60;99.90;;;;;;5065062;28;20267;-80
2022/12/10 04:26:51;;;;;;;0.10;0.10;;;-0.60;99.90;;;;;;5063816;28;20398;-80
2022/12/10 04:28:23;;;;;;;0.10;0.10;;;-0.50;99.90;;;;;;5062890;28;20205;-80
2022/12/10 04:30:48;;;;;;;0.10;0.10;;;-0.50;99.90;;;;;;5064069;28;20169;-80
2022/12/10 04:33:14;;;;;;;0.10;0.10;;;-0.50;99.90;;;;;;5064083;28;20608;-80
2022/12/10 04:35:39;;;;;;;0.10;0.10;;;-0.50;99.90;;;;;;5079987;28;20185;-80
2022/12/10 04:38:05;;;;;;;0.10;0.10;;;-0.60;99.90;;;;;;5063464;28;20205;-80
2022/12/10 04:40:30;;;;;;;0.10;0.10;;;-0.70;99.90;;;;;;5061773;28;20188;-80
2022/12/10 04:42:56;;;;;;;0.00;0.00;;;-0.70;99.90;;;;;;5062660;28;20268;-80
2022/12/10 04:45:21;;;;;;;0.10;0.10;;;-0.70;99.90;;;;;;5063317;28;20188;-80
2022/12/10 04:47:47;;;;;;;0.10;0.10;;;-0.70;99.90;;;;;;5062679;28;20692;-80
2022/12/10 04:50:12;;;;;;;0.10;0.10;;;-0.70;99.90;;;;;;5063120;28;20600;-80
2022/12/10 04:52:38;;;;;;;0.10;0.10;;;-0.70;99.90;;;;;;5062219;28;20198;-80
2022/12/10 04:55:04;;;;;;;0.00;0.00;;;-0.70;99.90;;;;;;5062291;28;20646;-80
2022/12/10 04:57:30;;;;;;;0.10;0.10;;;-0.70;99.90;;;;;;5063544;28;20204;-80
2022/12/10 04:59:55;;;;;;;0.10;0.10;;;-0.70;99.90;;;;;;5063299;28;20204;-80
2022/12/10 05:02:21;;;;;;;0.10;0.10;;;-0.70;99.90;;;;;;5062199;28;20204;-80
2022/12/10 05:04:48;;;;;;;0.07;0.07;;;-0.70;99.90;;;;;;5062482;28;20177;-80
2022/12/10 05:07:14;;;;;;;0.10;0.10;;;-0.70;99.90;;;;;;5063436;28;21356;-80
2022/12/10 05:09:39;;;;;;;0.00;0.00;;;-0.80;99.90;;;;;;5064803;28;20177;-80
2022/12/10 05:12:06;;;;;;;0.10;0.10;;;-0.80;99.90;;;;;;5062237;28;20181;-80
2022/12/10 05:14:31;;;;;;;0.10;0.10;;;-0.80;99.90;;;;;;5062612;28;20208;-80
2022/12/10 05:16:57;;;;;;;0.10;0.10;;;-0.80;99.90;;;;;;5061368;28;20205;-79
2022/12/10 05:19:23;;;;;;;0.10;0.10;;;-0.80;99.90;;;;;;5079411;28;20185;-80
2022/12/10 05:24:33;;;;;;;0.10;0.10;;;-0.90;99.90;;;;;;5063638;28;20180;-79
2022/12/10 05:26:59;;;;;;;0.10;0.10;;;-0.90;99.90;;;;;;5061821;28;20203;-80
2022/12/10 05:29:25;;;;;;;0.10;0.10;;;-0.90;99.90;;;;;;5065122;28;20181;-80
2022/12/10 05:31:50;;;;;;;0.50;0.50;;;-0.80;99.90;;;;;;5063576;28;21003;-80
2022/12/10 05:34:16;;;;;;;0.10;0.10;;;-0.80;99.90;;;;;;5063634;28;20203;-80
2022/12/10 05:36:41;;;;;;;0.10;0.10;;;-0.80;99.90;;;;;;5062125;28;20236;-80
2022/12/10 05:39:07;;;;;;;0.10;0.10;;;-0.80;99.90;;;;;;5062406;28;20248;-80
2022/12/10 05:41:38;;;;;;;0.10;0.10;;;-0.80;99.90;;;;;;5062667;28;20208;-80
2022/12/10 05:44:04;;;;;;;0.10;0.10;;;-0.80;99.90;;;;;;5063304;28;20177;-80
2022/12/10 05:46:32;;;;;;;0.00;0.00;;;-0.80;99.90;;;;;;5061778;28;20288;-80
2022/12/10 05:48:59;;;;;;;0.10;0.10;;;-0.90;99.90;;;;;;5063696;28;20228;-79
2022/12/10 05:51:28;;;;;;;0.10;0.10;;;-0.80;99.90;;;;;;5062856;28;20268;-80
2022/12/10 05:53:54;;;;;;;0.10;0.10;;;-0.70;99.90;;;;;;5066041;28;20615;-80
2022/12/10 05:56:22;;;;;;;0.07;0.07;;;-0.70;99.90;;;;;;5064522;28;20193;-80
2022/12/10 05:58:49;;;;;;;0.00;0.00;;;-0.70;99.90;;;;;;5083119;28;20189;-80
2022/12/10 06:01:17;;;;;;;0.10;0.10;;;-0.70;99.90;;;;;;5063898;28;20581;-80
2022/12/10 06:03:43;;;;;;;0.10;0.10;;;-0.70;99.90;;;;;;5064862;28;20575;-80
2022/12/10 06:06:11;;;;;;;0.40;0.40;;;-0.80;99.90;;;;;;5066043;28;20742;-80
2022/12/10 06:08:37;;;;;;;0.10;0.10;;;-0.80;99.90;;;;;;5066962;28;20197;-80
2022/12/10 06:11:05;;;;;;;0.00;0.00;;;-0.80;99.90;;;;;;5064563;28;20674;-80
2022/12/10 06:13:30;;;;;;;0.10;0.10;;;-0.80;99.90;;;;;;5082422;28;20200;-80
2022/12/10 06:15:56;;;;;;;0.00;0.00;;;-0.80;99.90;;;;;;5064744;28;20215;-80
2022/12/10 06:18:22;;;;;;;0.10;0.10;;;-0.80;99.90;;;;;;5065924;28;20227;-80
2022/12/10 06:20:47;;;;;;;0.00;0.00;;;-0.80;99.90;;;;;;5066537;28;20185;-80
2022/12/10 06:23:13;;;;;;;0.00;0.00;;;-0.70;99.90;;;;;;5065424;28;20247;-80
2022/12/10 06:25:39;;;;;;;0.10;0.10;;;-0.60;99.90;;;;;;5064790;28;20182;-80
2022/12/10 06:28:05;;;;;;;2.20;2.10;;;-0.50;99.90;;;;;;5065004;28;20227;-80
2022/12/10 06:30:31;;;;;;;0.00;0.00;;;-0.40;99.90;;;;;;5064878;28;20181;-80
2022/12/10 06:32:56;;;;;;;0.10;0.10;;;-0.40;99.90;;;;;;5065498;28;20246;-80
2022/12/10 06:35:22;;;;;;;0.03;0.03;;;-0.30;99.90;;;;;;5064299;28;20266;-80
2022/12/10 06:37:49;;;;;;;0.10;0.10;;;-0.30;99.90;;;;;;5064610;28;20209;-80
2022/12/10 06:40:14;;;;;;;0.00;0.00;;;-0.20;99.90;;;;;;5064320;28;20279;-80
2022/12/10 06:42:40;;;;;;;0.10;0.10;;;-0.10;99.90;;;;;;5065990;28;20769;-80
2022/12/10 06:45:06;;;;;;;0.07;0.07;;;0.00;99.90;;;;;;5064734;28;20588;-81
2022/12/10 06:47:31;;;;;;;0.10;0.10;;;0.10;99.90;;;;;;5064181;28;20225;-80
2022/12/10 06:49:57;;;;;;;0.10;0.10;;;0.20;99.90;;;;;;5065588;28;20195;-80
2022/12/10 06:52:22;;;;;;;0.00;0.00;;;0.20;99.90;;;;;;5064769;28;20182;-80
2022/12/10 06:54:48;;;;;;;0.10;0.10;;;0.30;99.90;;;;;;5068787;28;20714;-80
2022/12/10 06:57:13;;;;;;;0.00;0.00;;;0.30;99.90;;;;;;5070547;28;20201;-80
2022/12/10 06:59:39;;;;;;;0.10;0.10;;;0.40;99.90;;;;;;5069082;28;20185;-80
2022/12/10 07:02:05;;;;;;;0.00;0.00;;;0.40;99.90;;;;;;5065533;28;20205;-79
2022/12/10 07:04:30;;;;;;;0.00;0.00;;;0.50;99.90;;;;;;5059920;28;20251;-81
2022/12/10 07:06:56;;;;;;;0.00;0.00;;;0.50;99.90;;;;;;5070721;28;20342;-80
2022/12/10 07:09:22;;;;;;;0.03;0.03;;;0.60;99.90;;;;;;5066586;28;20192;-81
2022/12/10 07:11:47;;;;;;;0.10;0.10;;;0.60;99.90;;;;;;5068389;28;20181;-80
2022/12/10 07:14:16;;;;;;;0.03;0.03;;;0.70;99.90;;;;;;5067777;28;20213;-80
2022/12/10 07:16:42;;;;;;;0.00;0.00;;;0.80;99.90;;;;;;5061394;28;20202;-81
2022/12/10 07:19:11;;;;;;;0.10;0.10;;;0.80;99.90;;;;;;5070699;28;20182;-80
2022/12/10 07:21:40;;;;;;;0.10;0.10;;;0.90;99.90;;;;;;5069295;28;20312;-81
2022/12/10 07:24:17;;;;;;;0.10;0.10;;;1.00;99.90;;;;;;5062799;28;20253;-80
2022/12/10 07:26:44;;;;;;;0.10;0.10;;;1.00;99.90;;;;;;5075480;28;20205;-80
2022/12/10 07:29:14;;;;;;;0.00;0.00;;;1.00;99.90;;;;;;5069911;28;20190;-81
2022/12/10 07:31:40;;;;;;;0.10;0.10;;;1.00;99.90;;;;;;5071678;28;20181;-80
2022/12/10 07:34:06;;;;;;;0.10;0.10;;;1.20;99.90;;;;;;5068674;28;20185;-80
2022/12/10 07:36:31;;;;;;;0.00;0.00;;;1.30;99.90;;;;;;5066846;28;20205;-80
2022/12/10 07:38:57;;;;;;;0.10;0.10;;;1.40;99.90;;;;;;5058254;28;20218;-80
2022/12/10 07:41:24;;;;;;;0.10;0.10;;;1.40;99.90;;;;;;5064679;28;20276;-81
2022/12/10 07:43:50;;;;;;;0.00;0.00;;;1.50;99.90;;;;;;5060938;28;20646;-81
2022/12/10 07:46:22;;;;;;;0.10;0.10;;;1.60;99.90;;;;;;5065393;28;20669;-79
2022/12/10 07:48:49;;;;;;;0.10;0.10;;;1.70;99.90;;;;;;5069677;28;20178;-80
2022/12/10 07:51:15;;;;;;;0.10;0.10;;;1.70;99.90;;;;;;5069581;28;20636;-80
2022/12/10 07:53:41;;;;;;;0.10;0.10;;;1.70;99.90;;;;;;5065241;28;20183;-81
2022/12/10 07:56:07;;;;;;;0.10;0.10;;;1.80;99.90;;;;;;5070338;28;20181;-81
2022/12/10 07:58:33;;;;;;;0.00;0.00;;;1.90;99.90;;;;;;5073164;28;20190;-81
2022/12/10 08:00:59;;;;;;;0.10;0.10;;;2.00;99.90;;;;;;5067189;28;20190;-80
2022/12/10 08:03:25;;;;;;;0.00;0.00;;;2.10;99.90;;;;;;5066767;28;20650;-80
2022/12/10 08:06:08;;;;;;;0.10;0.10;;;2.10;99.90;;;;;;5064405;28;20703;-81
2022/12/10 08:08:35;;;;;;;0.00;0.00;;;2.10;99.90;;;;;;5064749;28;20195;-81
2022/12/10 08:11:02;;;;;;;0.00;0.00;;;2.20;99.90;;;;;;5059830;28;20183;-81
2022/12/10 08:13:28;;;;;;;0.10;0.10;;;2.30;99.90;;;;;;5066471;28;20200;-80
2022/12/10 08:15:54;;;;;;;0.10;0.10;;;2.30;99.90;;;;;;5066809;28;20187;-79
2022/12/10 08:18:20;;;;;;;0.10;0.10;;;2.40;99.90;;;;;;5066872;28;20257;-80
2022/12/10 08:20:46;;;;;;;0.10;0.10;;;2.50;99.90;;;;;;5064905;28;20610;-80
2022/12/10 08:23:12;;;;;;;0.00;0.00;;;2.50;99.90;;;;;;5065725;28;20298;-80
2022/12/10 08:25:37;;;;;;;0.50;0.50;;;2.40;99.90;;;;;;5068920;28;20170;-80
2022/12/10 08:28:03;;;;;;;0.10;0.10;;;2.50;99.90;;;;;;5064046;28;20240;-81
2022/12/10 08:30:29;;;;;;;0.10;0.10;;;2.40;99.90;;;;;;5065314;28;20666;-80
2022/12/10 08:32:55;;;;;;;0.10;0.10;;;2.40;99.90;;;;;;5067657;28;20274;-80
2022/12/10 08:35:21;;;;;;;0.10;0.10;;;2.50;99.90;;;;;;5067828;28;20270;-80
2022/12/10 08:37:46;;;;;;;0.10;0.10;;;2.40;99.90;;;;;;5068676;28;20200;-80
2022/12/10 08:40:12;;;;;;;0.00;0.00;;;2.40;99.90;;;;;;5062301;28;20183;-80
2022/12/10 08:42:38;;;;;;;0.10;0.10;;;2.20;99.90;;;;;;5065829;28;20200;-80
2022/12/10 08:45:04;;;;;;;0.10;0.10;;;2.30;99.90;;;;;;5066270;28;20185;-80
2022/12/10 08:47:29;;;;;;;0.07;0.07;;;2.50;99.90;;;;;;5062279;28;20288;-80
2022/12/10 08:49:55;;;;;;;0.00;0.00;;;2.50;99.90;;;;;;5060367;28;20212;-80
2022/12/10 08:52:20;;;;;;;0.10;0.10;;;2.40;99.90;;;;;;5062959;28;20205;-80
2022/12/10 08:54:46;;;;;;;0.00;0.00;;;2.30;99.90;;;;;;5065906;28;20543;-80
2022/12/10 08:57:11;;;;;;;0.00;0.00;;;2.30;99.90;;;;;;5057719;28;20207;-80
2022/12/10 08:59:37;;;;;;;0.10;0.10;;;2.30;99.90;;;;;;5063951;28;20269;-80
2022/12/10 09:02:03;;;;;;;0.10;0.10;;;2.20;99.90;;;;;;5061531;28;20211;-80
2022/12/10 09:04:28;;;;;;;0.00;0.00;;;2.20;99.90;;;;;;5058868;28;20236;-80
2022/12/10 09:06:54;;;;;;;0.10;0.10;;;1.90;99.90;;;;;;5068589;28;20212;-80
2022/12/10 09:09:19;;;;;;;0.10;0.10;;;1.90;99.90;;;;;;5061288;28;20187;-79
2022/12/10 09:11:45;;;;;;;0.00;0.00;;;1.90;99.90;;;;;;5069951;28;20245;-80
2022/12/10 09:14:11;;;;;;;0.10;0.10;;;1.90;99.90;;;;;;5068939;28;20322;-80
2022/12/10 09:16:39;;;;;;;0.10;0.10;;;1.70;99.90;;;;;;5056384;28;20216;-80
2022/12/10 09:19:05;;;;;;;0.10;0.10;;;1.60;99.90;;;;;;5064918;28;20191;-80
2022/12/10 09:21:31;;;;;;;0.00;0.00;;;1.60;99.90;;;;;;5058707;28;20203;-82
2022/12/10 09:23:57;;;;;;;0.00;0.00;;;1.60;99.90;;;;;;5063355;28;20182;-80
2022/12/10 09:26:23;;;;;;;0.57;0.57;;;1.50;99.90;;;;;;5067283;28;20178;-80
2022/12/10 09:28:49;;;;;;;0.00;0.00;;;1.30;99.90;;;;;;5068693;28;20262;-80
2022/12/10 09:31:17;;;;;;;0.03;0.03;;;1.10;99.90;;;;;;5066425;28;20182;-80
2022/12/10 09:33:44;;;;;;;0.10;0.10;;;1.00;99.90;;;;;;5070234;28;20179;-80
2022/12/10 09:36:11;;;;;;;0.10;0.10;;;1.00;99.90;;;;;;5072283;28;20663;-80
2022/12/10 09:38:41;;;;;;;0.10;0.10;;;1.00;99.90;;;;;;5064525;28;20224;-80
2022/12/10 09:41:10;;;;;;;0.10;0.10;;;1.00;99.90;;;;;;5063922;28;20244;-81
2022/12/10 09:43:55;;;;;;;0.10;0.10;;;1.00;99.90;;;;;;5087273;28;20772;-80
2022/12/10 09:46:46;;;;;;;0.10;0.10;;;1.10;99.90;;;;;;5069977;28;20185;-80
2022/12/10 09:49:23;;;;;;;0.10;0.10;;;1.60;99.90;;;;;;5066448;28;20214;-80
2022/12/10 09:51:53;;;;;;;0.00;0.00;;;2.00;99.90;;;;;;5063176;28;20196;-80
2022/12/10 09:54:28;;;;;;;0.10;0.10;;;2.00;99.90;;;;;;5066008;28;20185;-80
2022/12/10 09:56:56;;;;;;;0.10;0.10;;;2.30;99.90;;;;;;5067069;28;20271;-80
2022/12/10 09:59:34;;;;;;;0.10;0.10;;;2.60;99.90;;;;;;5061695;28;20666;-80
2022/12/10 10:02:24;;;;;;;0.10;0.10;;;3.00;99.90;;;;;;5065278;28;20213;-80
2022/12/10 10:04:51;;;;;;;0.20;0.20;;;2.90;99.90;;;;;;5065332;28;20205;-82
2022/12/10 10:07:29;;;;;;;0.10;0.10;;;2.70;99.90;;;;;;5066704;28;20205;-79
2022/12/10 10:10:13;;;;;;;0.10;0.10;;;2.30;99.90;;;;;;5071536;28;20186;-80
2022/12/10 10:12:40;;;;;;;0.10;0.10;;;2.30;99.90;;;;;;5066537;28;20666;-80
2022/12/10 10:15:21;;;;;;;0.10;0.10;;;2.10;99.90;;;;;;5056490;28;20189;-80
2022/12/10 10:17:49;;;;;;;0.10;0.10;;;2.10;99.90;;;;;;5061930;28;20227;-80
2022/12/10 10:20:15;;;;;;;0.03;0.03;;;2.30;99.90;;;;;;5066743;28;20660;-81
2022/12/10 10:22:41;;;;;;;0.10;0.10;;;2.10;99.90;;;;;;5070792;28;20672;-80
2022/12/10 10:25:17;;;;;;;0.10;0.10;;;2.00;99.90;;;;;;5069112;28;20219;-78
2022/12/10 10:27:42;;;;;;;0.10;0.10;;;1.90;99.90;;;;;;5065503;28;20206;-80
2022/12/10 10:30:16;;;;;;;0.00;0.00;;;1.90;99.90;;;;;;5065381;28;20182;-80
2022/12/10 10:32:41;;;;;;;0.10;0.10;;;2.00;99.90;;;;;;5060003;28;20264;-80
2022/12/10 10:35:30;;;;;;;0.10;0.10;;;2.30;99.90;;;;;;5062181;28;20253;-80
2022/12/10 10:38:13;;;;;;;0.10;0.10;;;2.70;99.90;;;;;;5066653;28;20660;-81
2022/12/10 10:40:45;;;;;;;0.10;0.10;;;3.10;99.90;;;;;;5065074;28;20234;-80
2022/12/10 10:43:27;;;;;;;0.00;0.00;;;3.10;99.90;;;;;;5067152;28;20215;-80
2022/12/10 10:45:59;;;;;;;0.00;0.00;;;3.40;99.90;;;;;;5064086;28;20551;-81
2022/12/10 10:48:26;;;;;;;0.00;0.00;;;3.30;99.90;;;;;;5078320;28;20296;-80
2022/12/10 10:51:05;;;;;;;0.10;0.10;;;3.00;99.90;;;;;;5069652;28;20180;-81
2022/12/10 10:53:44;;;;;;;0.10;0.10;;;3.70;99.90;;;;;;5063791;28;20231;-81
2022/12/10 10:56:20;;;;;;;0.10;0.10;;;3.80;99.90;;;;;;5067874;28;20194;-81
2022/12/10 10:58:57;;;;;;;0.00;0.00;;;3.60;99.90;;;;;;5065519;28;20183;-81
2022/12/10 11:01:26;;;;;;;0.10;0.10;;;3.70;99.90;;;;;;5082840;28;20264;-81
2022/12/10 11:03:58;;;;;;;2.40;2.23;;;3.20;99.90;;;;;;5065186;28;20192;-81
2022/12/10 11:06:24;;;;;;;0.00;0.00;;;3.00;99.90;;;;;;5067455;28;20206;-81
2022/12/10 11:08:53;;;;;;;0.10;0.10;;;2.90;99.90;;;;;;5066409;28;20554;-81
2022/12/10 11:11:30;;;;;;;0.10;0.10;;;2.50;99.90;;;;;;5070126;28;20204;-80
2022/12/10 11:14:31;;;;;;;0.10;0.10;;;2.90;99.90;;;;;;5067064;28;20260;-80
2022/12/10 11:17:22;;;;;;;0.00;0.00;;;3.20;99.90;;;;;;5068815;28;20212;-81
2022/12/10 11:20:13;;;;;;;0.10;0.10;;;3.40;99.90;;;;;;5059726;28;20195;-80
2022/12/10 11:22:49;;;;;;;0.10;0.10;;;3.70;99.90;;;;;;5080739;28;20205;-80
2022/12/10 11:25:15;;;;;;;0.10;0.10;;;3.60;99.90;;;;;;5066043;28;20821;-81
2022/12/10 11:28:12;;;;;;;0.00;0.00;;;3.90;99.90;;;;;;5062585;28;20286;-81
2022/12/10 11:30:47;;;;;;;0.10;0.10;;;3.30;99.90;;;;;;5064921;28;20804;-81
2022/12/10 11:33:44;;;;;;;0.10;0.10;;;3.60;99.90;;;;;;5066028;28;20188;-80
2022/12/10 11:36:27;;;;;;;0.00;0.00;;;3.90;99.90;;;;;;5066690;28;20775;-80
2022/12/10 11:39:09;;;;;;;0.00;0.00;;;4.00;99.90;;;;;;5059962;28;20270;-81
2022/12/10 11:41:38;;;;;;;0.10;0.10;;;4.20;99.90;;;;;;5065394;28;20200;-81
2022/12/10 11:44:31;;;;;;;0.10;0.10;;;3.70;99.90;;;;;;5077441;28;20187;-81
2022/12/10 11:46:57;;;;;;;0.10;0.10;;;4.10;99.90;;;;;;5065367;28;20221;-81
2022/12/10 11:49:52;;;;;;;0.00;0.00;;;4.20;99.90;;;;;;5059874;28;20177;-81
2022/12/10 11:52:34;;;;;;;0.10;0.10;;;4.40;99.90;;;;;;5065490;28;20226;-81
2022/12/10 11:55:16;;;;;;;0.40;0.40;;;4.30;99.90;;;;;;5065508;28;20185;-81
2022/12/10 11:58:08;;;;;;;0.10;0.10;;;3.80;99.90;;;;;;5065594;28;20221;-81
2022/12/10 12:00:57;;;;;;;0.10;0.10;;;3.90;99.90;;;;;;5066185;28;20825;-81
2022/12/10 12:03:43;;;;;;;0.00;0.00;;;4.20;99.90;;;;;;5064571;28;20317;-82
2022/12/10 12:06:32;;;;;;;0.10;0.10;;;4.30;99.90;;;;;;5061064;28;20205;-81
2022/12/10 12:09:32;;;;;;;0.00;0.00;;;4.00;99.90;;;;;;5054869;28;20224;-81
2022/12/10 12:12:30;;;;;;;2.07;2.00;;;4.40;99.90;;;;;;5060641;28;20227;-81
2022/12/10 12:15:01;;;;;;;0.00;0.00;;;4.80;99.90;;;;;;5055059;28;20212;-79
2022/12/10 12:17:42;;;;;;;0.10;0.10;;;4.70;99.90;;;;;;5064548;28;20218;-80
2022/12/10 12:20:19;;;;;;;0.10;0.10;;;5.00;99.90;;;;;;5061048;28;20661;-80
2022/12/10 12:22:51;;;;;;;0.10;0.10;;;4.20;99.90;;;;;;5063933;28;20348;-81
2022/12/10 12:25:30;;;;;;;0.10;0.10;;;4.80;99.90;;;;;;5065958;28;20268;-80
2022/12/10 12:28:11;;;;;;;0.10;0.10;;;4.70;99.90;;;;;;5064778;28;20201;-80
2022/12/10 12:30:37;;;;;;;0.10;0.10;;;4.80;99.90;;;;;;5066495;28;20400;-80
2022/12/10 12:33:13;;;;;;;0.10;0.10;;;5.00;99.90;;;;;;5059156;28;20849;-79
2022/12/10 12:35:52;;;;;;;0.10;0.10;;;5.50;99.90;;;;;;5069046;28;20184;-80
2022/12/10 12:38:41;;;;;;;0.10;0.10;;;5.20;99.90;;;;;;5063816;28;20311;-80
2022/12/10 12:41:21;;;;;;;0.10;0.10;;;5.40;99.90;;;;;;5061305;28;20177;-81
2022/12/10 12:44:00;;;;;;;0.10;0.10;;;4.60;99.90;;;;;;5066043;28;20191;-80
2022/12/10 12:46:41;;;;;;;0.10;0.10;;;4.60;99.90;;;;;;5064132;28;20199;-80
2022/12/10 12:49:16;;;;;;;0.10;0.10;;;4.00;99.90;;;;;;5062351;28;20179;-80
2022/12/10 12:51:49;;;;;;;0.00;0.00;;;4.20;99.90;;;;;;5058134;28;20181;-80
2022/12/10 12:54:15;;;;;;;0.10;0.10;;;4.10;99.90;;;;;;5060643;28;20181;-81
2022/12/10 12:56:59;;;;;;;0.10;0.10;;;4.30;99.90;;;;;;5059867;28;20293;-80
2022/12/10 12:59:53;;;;;;;0.10;0.10;;;4.50;99.90;;;;;;5067144;28;20177;-80
2022/12/10 13:02:42;;;;;;;0.03;0.03;;;4.30;99.90;;;;;;5055764;28;20921;-80
2022/12/10 13:05:18;;;;;;;0.10;0.10;;;4.40;99.90;;;;;;5061805;28;20173;-80
2022/12/10 13:07:43;;;;;;;0.10;0.10;;;4.50;99.90;;;;;;5065612;28;20621;-80
2022/12/10 13:10:23;;;;;;;0.10;0.10;;;4.50;99.90;;;;;;5063838;28;20260;-80
2022/12/10 13:13:16;;;;;;;0.10;0.10;;;4.40;99.90;;;;;;5071234;28;20184;-80
2022/12/10 13:15:41;;;;;;;0.00;0.00;;;4.30;99.90;;;;;;5068497;28;20284;-80
2022/12/10 13:18:10;;;;;;;0.10;0.10;;;4.00;99.90;;;;;;5067095;28;20200;-80
2022/12/10 13:20:46;;;;;;;0.10;0.10;;;4.20;99.90;;;;;;5066426;28;20665;-80
2022/12/10 13:23:23;;;;;;;0.00;0.00;;;4.30;99.90;;;;;;5071336;28;20208;-80